createdAt,value
2022-12-31T00:01:56.220Z,9.78
2022-12-31T00:04:57.837Z,9.74
2022-12-31T00:07:59.544Z,9.71
2022-12-31T00:11:01.094Z,9.69
2022-12-31T00:14:03.505Z,9.67
2022-12-31T00:17:05.118Z,9.64
2022-12-31T00:20:07.331Z,9.64
2022-12-31T00:23:10.582Z,9.65
2022-12-31T00:26:14.560Z,9.64
2022-12-31T00:29:16.113Z,9.63
2022-12-31T00:32:17.802Z,9.63
2022-12-31T00:35:19.350Z,9.63
2022-12-31T00:38:20.905Z,9.64
2022-12-31T00:41:23.929Z,9.65
2022-12-31T00:44:25.595Z,9.66
2022-12-31T00:47:27.242Z,9.67
2022-12-31T00:50:28.795Z,9.68
2022-12-31T00:53:30.508Z,9.68
2022-12-31T00:56:32.110Z,9.69
2022-12-31T00:59:33.657Z,9.69
2022-12-31T01:02:35.623Z,9.71
2022-12-31T01:05:37.514Z,9.70
2022-12-31T01:08:39.070Z,9.71
2022-12-31T01:11:41.005Z,9.72
2022-12-31T01:14:42.803Z,9.71
2022-12-31T01:17:44.345Z,9.73
2022-12-31T01:20:45.907Z,9.74
2022-12-31T01:23:47.924Z,9.74
2022-12-31T01:26:50.910Z,9.74
2022-12-31T01:29:52.488Z,9.74
2022-12-31T01:32:54.018Z,9.74
2022-12-31T01:35:55.581Z,9.73
2022-12-31T01:38:59.610Z,9.72
2022-12-31T01:42:01.178Z,9.71
2022-12-31T01:45:03.022Z,9.68
2022-12-31T01:48:04.876Z,9.65
2022-12-31T01:51:09.073Z,9.64
2022-12-31T01:54:15.070Z,9.64
2022-12-31T01:57:17.711Z,9.64
2022-12-31T02:00:19.914Z,9.63
2022-12-31T02:03:23.416Z,9.62
2022-12-31T02:06:33.323Z,9.62
2022-12-31T02:09:38.904Z,9.61
2022-12-31T02:12:40.852Z,9.60
2022-12-31T02:16:00.430Z,9.59
2022-12-31T02:19:04.959Z,9.57
2022-12-31T02:22:17.311Z,9.57
2022-12-31T02:25:40.123Z,9.57
2022-12-31T02:28:50.380Z,9.56
2022-12-31T02:32:00.817Z,9.55
2022-12-31T02:35:14.492Z,9.54
2022-12-31T02:38:22.413Z,9.53
2022-12-31T02:41:42.794Z,9.52
2022-12-31T02:44:44.366Z,9.53
2022-12-31T02:48:05.825Z,9.54
2022-12-31T02:51:10.131Z,9.53
2022-12-31T02:54:28.517Z,9.52
2022-12-31T02:57:36.289Z,9.53
2022-12-31T03:01:03.179Z,9.53
2022-12-31T03:04:25.514Z,9.53
2022-12-31T03:07:28.934Z,9.53
2022-12-31T03:10:30.496Z,9.54
2022-12-31T03:13:32.057Z,9.54
2022-12-31T03:16:35.042Z,9.54
2022-12-31T03:19:55.080Z,9.53
2022-12-31T03:22:56.579Z,9.52
2022-12-31T03:25:59.166Z,9.53
2022-12-31T03:29:00.712Z,9.52
2022-12-31T03:32:02.312Z,9.52
2022-12-31T03:35:04.957Z,9.53
2022-12-31T03:38:06.902Z,9.53
2022-12-31T03:41:11.242Z,9.54
2022-12-31T03:44:12.748Z,9.52
2022-12-31T03:47:14.326Z,9.52
2022-12-31T03:50:18.187Z,9.54
2022-12-31T03:53:19.751Z,9.52
2022-12-31T03:56:21.346Z,9.52
2022-12-31T03:59:22.853Z,9.51
2022-12-31T04:02:28.572Z,9.51
2022-12-31T04:05:31.312Z,9.52
2022-12-31T04:08:32.871Z,9.51
2022-12-31T04:11:34.458Z,9.50
2022-12-31T04:14:36.086Z,9.47
2022-12-31T04:17:37.753Z,9.46
2022-12-31T04:20:39.282Z,9.45
2022-12-31T04:23:40.813Z,9.44
2022-12-31T04:26:44.278Z,9.44
2022-12-31T04:29:46.112Z,9.42
2022-12-31T04:32:47.661Z,9.41
2022-12-31T04:35:49.209Z,9.41
2022-12-31T04:38:50.758Z,9.40
2022-12-31T04:41:52.766Z,9.39
2022-12-31T04:44:54.269Z,9.38
2022-12-31T04:47:55.813Z,9.38
2022-12-31T04:50:57.354Z,9.37
2022-12-31T04:53:59.380Z,9.33
2022-12-31T04:57:00.893Z,9.34
2022-12-31T05:00:02.464Z,9.33
2022-12-31T05:03:04.137Z,9.32
2022-12-31T05:06:09.112Z,9.31
2022-12-31T05:09:10.647Z,9.28
2022-12-31T05:12:12.255Z,9.27
2022-12-31T05:15:13.841Z,9.24
2022-12-31T05:18:15.456Z,9.22
2022-12-31T05:21:21.111Z,9.22
2022-12-31T05:24:22.843Z,9.20
2022-12-31T05:27:24.557Z,9.19
2022-12-31T05:30:26.221Z,9.16
2022-12-31T05:33:27.869Z,9.13
2022-12-31T05:36:29.382Z,9.14
2022-12-31T05:39:30.928Z,9.12
2022-12-31T05:42:32.546Z,9.10
2022-12-31T05:45:34.154Z,9.11
2022-12-31T05:48:36.144Z,9.10
2022-12-31T05:51:37.713Z,9.09
2022-12-31T05:54:39.285Z,9.08
2022-12-31T05:57:41.075Z,9.07
2022-12-31T06:00:43.069Z,9.06
2022-12-31T06:03:44.716Z,9.07
2022-12-31T06:06:46.313Z,9.05
2022-12-31T06:09:47.886Z,9.05
2022-12-31T06:12:49.417Z,9.05
2022-12-31T06:15:51.137Z,9.06
2022-12-31T06:18:53.001Z,9.09
2022-12-31T06:21:54.561Z,9.08
2022-12-31T06:24:56.170Z,9.08
2022-12-31T06:27:57.720Z,9.08
2022-12-31T06:31:04.775Z,9.06
2022-12-31T06:34:06.918Z,9.05
2022-12-31T06:37:08.595Z,9.04
2022-12-31T06:40:10.818Z,9.04
2022-12-31T06:43:12.369Z,9.03
2022-12-31T06:46:16.996Z,9.03
2022-12-31T06:49:18.709Z,9.01
2022-12-31T06:52:21.290Z,9.02
2022-12-31T06:55:23.374Z,9.01
2022-12-31T06:58:25.237Z,9.02
2022-12-31T07:01:43.462Z,9.01
2022-12-31T07:05:06.542Z,9.00
2022-12-31T07:08:11.409Z,8.99
2022-12-31T07:11:23.620Z,8.97
2022-12-31T07:14:36.074Z,8.97
2022-12-31T07:17:54.969Z,8.96
2022-12-31T07:20:56.771Z,8.95
2022-12-31T07:23:58.588Z,8.96
2022-12-31T07:27:00.079Z,9.23
2022-12-31T07:30:03.975Z,9.22
2022-12-31T07:33:45.832Z,9.20
2022-12-31T07:37:07.895Z,9.17
2022-12-31T07:40:29.117Z,9.13
2022-12-31T07:44:06.346Z,9.21
2022-12-31T07:47:26.729Z,9.25
2022-12-31T07:50:29.958Z,9.21
2022-12-31T07:53:31.789Z,9.19
2022-12-31T07:56:33.499Z,9.20
2022-12-31T07:59:37.924Z,9.22
2022-12-31T08:03:17.463Z,9.63
2022-12-31T08:06:37.685Z,9.84
2022-12-31T08:09:59.763Z,9.84
2022-12-31T08:13:04.031Z,9.79
2022-12-31T08:16:11.510Z,9.72
2022-12-31T08:19:26.284Z,9.65
2022-12-31T08:23:08.994Z,9.59
2022-12-31T08:26:13.626Z,9.50
2022-12-31T08:29:24.163Z,9.57
2022-12-31T08:32:40.234Z,9.59
2022-12-31T08:36:00.329Z,9.53
2022-12-31T08:39:22.101Z,9.45
2022-12-31T08:42:44.093Z,9.38
2022-12-31T08:45:49.375Z,9.32
2022-12-31T08:48:51.082Z,9.27
2022-12-31T08:51:53.082Z,9.24
2022-12-31T08:54:54.977Z,9.22
2022-12-31T08:58:15.915Z,9.20
2022-12-31T09:01:22.238Z,9.18
2022-12-31T09:04:33.025Z,9.16
2022-12-31T09:07:39.407Z,9.15
2022-12-31T09:11:04.177Z,9.14
2022-12-31T09:14:24.571Z,9.13
2022-12-31T09:17:36.059Z,9.12
2022-12-31T09:20:43.317Z,9.11
2022-12-31T09:23:46.123Z,9.11
2022-12-31T09:27:27.529Z,9.10
2022-12-31T09:30:38.261Z,9.10
2022-12-31T09:33:57.226Z,9.10
2022-12-31T09:37:16.468Z,9.23
2022-12-31T09:40:56.470Z,9.31
2022-12-31T09:44:48.290Z,9.34
2022-12-31T09:48:02.054Z,9.39
2022-12-31T09:51:09.558Z,9.42
2022-12-31T09:54:30.011Z,9.47
2022-12-31T09:57:43.133Z,9.51
2022-12-31T10:00:51.669Z,9.56
2022-12-31T10:04:09.603Z,9.59
2022-12-31T10:07:11.153Z,9.64
2022-12-31T10:10:22.874Z,9.68
2022-12-31T10:13:33.264Z,9.71
2022-12-31T10:16:53.349Z,9.74
2022-12-31T10:20:10.041Z,9.77
2022-12-31T10:23:20.363Z,9.80
2022-12-31T10:26:53.028Z,9.83
2022-12-31T10:29:57.820Z,9.86
2022-12-31T10:33:36.982Z,9.88
2022-12-31T10:37:06.494Z,9.90
2022-12-31T10:40:25.490Z,9.93
2022-12-31T10:43:51.946Z,9.97
2022-12-31T10:47:32.565Z,9.98
2022-12-31T10:50:47.734Z,10.00
2022-12-31T10:54:05.670Z,10.03
2022-12-31T10:57:25.510Z,10.06
2022-12-31T11:00:30.995Z,10.10
2022-12-31T11:03:38.666Z,10.13
2022-12-31T11:07:01.780Z,10.18
2022-12-31T11:10:09.470Z,10.21
2022-12-31T11:13:38.977Z,10.24
2022-12-31T11:17:04.968Z,10.28
2022-12-31T11:20:15.785Z,10.32
2022-12-31T11:23:29.425Z,10.37
2022-12-31T11:26:49.407Z,10.40
2022-12-31T11:30:04.799Z,10.44
2022-12-31T11:33:06.297Z,10.47
2022-12-31T11:36:26.325Z,10.49
2022-12-31T11:39:36.611Z,10.53
2022-12-31T11:43:10.247Z,10.58
2022-12-31T11:46:14.884Z,10.61
2022-12-31T11:49:26.476Z,10.66
2022-12-31T11:52:52.887Z,10.69
2022-12-31T11:56:06.600Z,10.72
2022-12-31T11:59:18.598Z,10.74
2022-12-31T12:02:32.555Z,10.78
2022-12-31T12:05:35.605Z,10.80
2022-12-31T12:08:37.881Z,10.82
2022-12-31T12:11:40.954Z,10.85
2022-12-31T12:14:45.403Z,10.88
2022-12-31T12:17:53.287Z,10.90
2022-12-31T12:21:13.394Z,10.94
2022-12-31T12:24:25.244Z,10.96
2022-12-31T12:27:32.532Z,10.98
2022-12-31T12:30:38.486Z,10.98
2022-12-31T12:33:46.125Z,10.99
2022-12-31T12:36:47.969Z,11.00
2022-12-31T12:40:01.558Z,11.01
2022-12-31T12:43:03.616Z,11.01
2022-12-31T12:46:18.204Z,11.01
2022-12-31T12:49:26.438Z,11.01
2022-12-31T12:52:59.897Z,11.01
2022-12-31T12:56:01.433Z,10.99
2022-12-31T12:59:15.864Z,10.99
2022-12-31T13:02:42.665Z,11.01
2022-12-31T13:06:23.071Z,11.02
2022-12-31T13:09:33.724Z,11.03
2022-12-31T13:13:25.935Z,11.05
2022-12-31T13:16:50.689Z,11.06
2022-12-31T13:20:13.012Z,11.08
2022-12-31T13:23:14.574Z,11.09
2022-12-31T13:26:34.445Z,11.12
2022-12-31T13:29:37.725Z,11.12
2022-12-31T13:32:43.399Z,11.15
2022-12-31T13:35:53.322Z,11.16
2022-12-31T13:38:59.406Z,11.17
2022-12-31T13:42:14.635Z,11.19
2022-12-31T13:45:26.942Z,11.21
2022-12-31T13:48:36.131Z,11.24
2022-12-31T13:51:45.028Z,11.26
2022-12-31T13:54:58.398Z,11.27
2022-12-31T13:58:27.887Z,11.30
2022-12-31T14:02:04.592Z,11.32
2022-12-31T14:05:12.219Z,11.32
2022-12-31T14:08:14.026Z,11.35
2022-12-31T14:11:46.670Z,11.38
2022-12-31T14:15:03.447Z,11.37
2022-12-31T14:18:15.712Z,11.37
2022-12-31T14:21:28.756Z,11.36
2022-12-31T14:24:49.740Z,11.35
2022-12-31T14:27:54.497Z,11.35
2022-12-31T14:31:08.975Z,11.33
2022-12-31T14:34:16.458Z,11.31
2022-12-31T14:37:31.111Z,11.30
2022-12-31T14:41:11.791Z,11.28
2022-12-31T14:44:38.779Z,11.26
2022-12-31T14:47:57.132Z,11.23
2022-12-31T14:51:02.270Z,11.23
2022-12-31T14:54:04.093Z,11.20
2022-12-31T14:57:17.912Z,11.18
2022-12-31T15:00:24.823Z,11.18
2022-12-31T15:03:42.933Z,11.16
2022-12-31T15:07:16.891Z,11.15
2022-12-31T15:10:43.479Z,11.12
2022-12-31T15:14:06.621Z,11.10
2022-12-31T15:17:11.251Z,11.08
2022-12-31T15:20:30.773Z,11.34
2022-12-31T15:23:43.845Z,11.30
2022-12-31T15:26:52.597Z,11.27
2022-12-31T15:29:54.300Z,11.23
2022-12-31T15:32:59.074Z,11.20
2022-12-31T15:36:13.674Z,11.16
2022-12-31T15:39:15.485Z,11.13
2022-12-31T15:42:39.930Z,11.11
2022-12-31T15:45:43.650Z,11.09
2022-12-31T15:48:52.617Z,11.06
2022-12-31T15:52:01.350Z,11.03
2022-12-31T15:55:05.726Z,11.02
2022-12-31T15:58:21.121Z,11.00
2022-12-31T16:01:31.343Z,10.97
2022-12-31T16:04:33.738Z,10.97
2022-12-31T16:07:35.629Z,10.93
2022-12-31T16:10:37.218Z,10.93
2022-12-31T16:13:48.612Z,10.95
2022-12-31T16:16:56.461Z,10.94
2022-12-31T16:20:00.482Z,10.96
2022-12-31T16:23:03.502Z,10.94
2022-12-31T16:26:05.761Z,10.93
2022-12-31T16:29:13.570Z,10.94
2022-12-31T16:32:17.726Z,10.98
2022-12-31T16:35:25.957Z,11.00
2022-12-31T16:38:32.824Z,11.02
2022-12-31T16:41:43.728Z,11.07
2022-12-31T16:44:46.828Z,11.10
2022-12-31T16:47:49.062Z,11.12
2022-12-31T16:50:55.904Z,11.17
2022-12-31T16:53:58.762Z,11.20
2022-12-31T16:57:00.935Z,11.24
2022-12-31T17:00:06.948Z,11.27
2022-12-31T17:03:27.120Z,11.29
2022-12-31T17:06:32.180Z,11.30
2022-12-31T17:09:37.097Z,11.32
2022-12-31T17:13:25.467Z,11.35
2022-12-31T17:16:06.946Z,11.36
2022-12-31T17:19:26.249Z,11.37
2022-12-31T17:22:37.008Z,11.37
2022-12-31T17:25:39.045Z,11.38
2022-12-31T17:28:47.425Z,11.39
2022-12-31T17:32:00.661Z,11.40
2022-12-31T17:35:03.026Z,11.41
2022-12-31T17:38:23.133Z,11.39
2022-12-31T17:41:27.279Z,11.39
2022-12-31T17:44:29.371Z,11.37
2022-12-31T17:47:36.366Z,11.37
2022-12-31T17:50:50.276Z,11.38
2022-12-31T17:53:51.812Z,11.38
2022-12-31T17:56:53.883Z,11.37
2022-12-31T17:59:56.017Z,11.38
2022-12-31T18:02:57.580Z,11.42
2022-12-31T18:05:59.166Z,11.44
2022-12-31T18:09:00.712Z,11.46
2022-12-31T18:12:05.165Z,11.46
2022-12-31T18:15:07.557Z,11.47
2022-12-31T18:18:18.147Z,11.47
2022-12-31T18:21:29.665Z,11.53
2022-12-31T18:24:31.230Z,11.57
2022-12-31T18:27:34.850Z,11.58
2022-12-31T18:30:36.473Z,11.58
2022-12-31T18:33:38.053Z,11.57
2022-12-31T18:36:39.724Z,11.57
2022-12-31T18:39:41.424Z,11.59
2022-12-31T18:42:43.050Z,11.58
2022-12-31T18:45:46.124Z,11.58
2022-12-31T18:48:47.712Z,11.57
2022-12-31T18:51:54.019Z,11.57
2022-12-31T18:54:55.571Z,11.56
2022-12-31T18:57:57.136Z,11.56
2022-12-31T19:00:58.808Z,11.56
2022-12-31T19:04:03.320Z,11.56
2022-12-31T19:07:04.903Z,11.57
2022-12-31T19:10:06.714Z,11.60
2022-12-31T19:13:12.998Z,11.62
2022-12-31T19:16:14.742Z,11.62
2022-12-31T19:19:17.063Z,11.62
2022-12-31T19:22:18.563Z,11.62
2022-12-31T19:25:25.739Z,11.63
2022-12-31T19:28:28.417Z,11.66
2022-12-31T19:31:29.983Z,11.64
2022-12-31T19:34:31.579Z,11.63
2022-12-31T19:37:33.082Z,11.62
2022-12-31T19:40:34.623Z,11.61
2022-12-31T19:43:36.145Z,11.58
2022-12-31T19:46:37.711Z,11.58
2022-12-31T19:49:39.225Z,11.57
2022-12-31T19:52:41.027Z,11.58
2022-12-31T19:55:42.917Z,11.59
2022-12-31T19:58:45.117Z,11.61
2022-12-31T20:01:46.754Z,11.61
2022-12-31T20:04:48.405Z,11.61
2022-12-31T20:07:50.046Z,11.62
2022-12-31T20:10:51.583Z,11.64
2022-12-31T20:13:54.110Z,11.64
2022-12-31T20:16:56.309Z,11.66
2022-12-31T20:19:57.937Z,11.68
2022-12-31T20:22:59.470Z,11.70
2022-12-31T20:26:01.807Z,11.71
2022-12-31T20:29:03.416Z,11.73
2022-12-31T20:32:05.231Z,11.73
2022-12-31T20:35:07.220Z,11.74
2022-12-31T20:38:09.055Z,11.75
2022-12-31T20:41:14.564Z,11.78
2022-12-31T20:44:16.141Z,11.77
2022-12-31T20:47:17.676Z,11.79
2022-12-31T20:50:19.316Z,11.81
2022-12-31T20:53:20.935Z,11.83
2022-12-31T20:56:23.955Z,11.84
2022-12-31T20:59:25.786Z,11.87
2022-12-31T21:02:40.676Z,11.88
2022-12-31T21:05:54.753Z,11.91
2022-12-31T21:08:58.495Z,11.92
2022-12-31T21:12:19.221Z,11.94
2022-12-31T21:15:21.589Z,11.94
2022-12-31T21:18:23.534Z,11.95
2022-12-31T21:21:25.072Z,11.97
2022-12-31T21:24:26.646Z,11.97
2022-12-31T21:27:31.536Z,11.99
2022-12-31T21:30:33.314Z,12.00
2022-12-31T21:33:35.237Z,12.02
2022-12-31T21:36:36.924Z,12.03
2022-12-31T21:39:38.475Z,12.02
2022-12-31T21:42:39.996Z,12.01
2022-12-31T21:45:41.910Z,12.00
2022-12-31T21:48:43.409Z,12.00
2022-12-31T21:52:03.345Z,12.01
2022-12-31T21:55:24.216Z,12.02
2022-12-31T21:58:27.544Z,12.02
2022-12-31T22:01:48.270Z,12.02
2022-12-31T22:05:14.073Z,12.02
2022-12-31T22:08:11.436Z,12.03
2022-12-31T22:11:14.223Z,12.04
2022-12-31T22:14:15.803Z,12.05
2022-12-31T22:17:17.464Z,12.05
2022-12-31T22:20:28.120Z,12.04
2022-12-31T22:23:31.204Z,12.03
2022-12-31T22:26:32.810Z,12.02
2022-12-31T22:29:34.364Z,12.02
2022-12-31T22:32:36.885Z,12.02
2022-12-31T22:35:38.477Z,12.04
2022-12-31T22:38:40.251Z,12.17
2022-12-31T22:41:41.978Z,12.22
2022-12-31T22:44:43.548Z,12.23
2022-12-31T22:47:45.081Z,12.21
2022-12-31T22:50:54.956Z,12.22
2022-12-31T22:53:56.578Z,12.20
2022-12-31T22:56:58.190Z,12.19
2022-12-31T22:59:59.719Z,12.18
2022-12-31T23:03:01.331Z,12.17
2022-12-31T23:06:02.982Z,12.16
2022-12-31T23:09:23.077Z,12.16
2022-12-31T23:12:24.701Z,12.16
2022-12-31T23:15:44.671Z,12.16
2022-12-31T23:19:05.699Z,12.15
2022-12-31T23:22:25.724Z,12.14
2022-12-31T23:25:27.341Z,12.14
2022-12-31T23:28:28.945Z,12.12
2022-12-31T23:31:30.619Z,12.14
2022-12-31T23:34:32.706Z,12.13
2022-12-31T23:37:34.287Z,12.12
2022-12-31T23:40:35.899Z,12.13
2022-12-31T23:43:37.469Z,12.12
2022-12-31T23:46:39.903Z,12.11
2022-12-31T23:49:41.523Z,12.11
2022-12-31T23:52:43.037Z,12.09
2022-12-31T23:55:44.617Z,12.08
2022-12-31T23:58:46.261Z,12.05
